Time;durP1;ratioP1;P1;durP2;ratioP2;P2;SDS_P1;SDS_P2;PMS_P1;PMS_P2;Temp;Humidity;BMP_temperature;BMP_pressure;BME280_temperature;BME280_humidity;BME280_pressure;Samples;Min_cycle;Max_cycle;Signal;HPM_P1;HPM_P2
2021/10/06 00:01:47;;;;;;;;;;;;;;;12.68;56.20;100868.17;1322027;91;20510;31
2021/10/06 00:06:42;;;;;;;;;;;;;;;12.62;55.92;100871.77;1351685;88;20281;31
2021/10/06 00:09:10;;;;;;;;;;;;;;;12.61;55.88;100872.77;1340608;88;20322;31
2021/10/06 00:11:40;;;;;;;;;;;;;;;12.58;55.84;100866.92;1369864;87;20276;31
2021/10/06 00:14:11;;;;;;;;;;;;;;;12.55;56.13;100864.58;1332242;89;20327;31
2021/10/06 00:19:12;;;;;;;;;;;;;;;12.51;55.63;100869.82;1317061;90;20334;31
2021/10/06 00:21:39;;;;;;;;;;;;;;;12.49;55.73;100869.98;1353200;88;20325;31
2021/10/06 00:24:06;;;;;;;;;;;;;;;12.47;56.28;100866.64;1347844;89;20368;31
2021/10/06 00:26:38;;;;;;;;;;;;;;;12.45;56.55;100869.92;1322325;90;21680;31
2021/10/06 00:29:09;;;;;;;;;;;;;;;12.43;55.31;100870.59;1354453;88;20351;31
2021/10/06 00:34:06;;;;;;;;;;;;;;;12.41;55.57;100871.22;1354747;89;22431;31
2021/10/06 00:39:00;;;;;;;;;;;;;;;12.38;55.79;100871.52;1356990;89;22679;31
2021/10/06 00:41:27;;;;;;;;;;;;;;;12.36;55.32;100876.12;1356404;89;22006;31
2021/10/06 00:43:55;;;;;;;;;;;;;;;12.34;55.52;100878.09;1372984;87;21372;31
2021/10/06 00:46:24;;;;;;;;;;;;;;;12.32;55.31;100882.73;1350350;90;20481;31
2021/10/06 00:48:54;;;;;;;;;;;;;;;12.28;55.55;100870.72;1362322;88;20460;31
2021/10/06 00:51:23;;;;;;;;;;;;;;;12.24;55.81;100876.83;1365233;88;20462;31
2021/10/06 00:53:53;;;;;;;;;;;;;;;12.23;55.51;100872.97;1369740;86;20275;31
2021/10/06 00:56:20;;;;;;;;;;;;;;;12.21;55.47;100866.50;1341831;89;20229;31
2021/10/06 00:58:48;;;;;;;;;;;;;;;12.16;55.77;100873.56;1361345;88;20241;31
2021/10/06 01:01:15;;;;;;;;;;;;;;;12.11;55.77;100865.23;1353837;89;20332;31
2021/10/06 01:03:42;;;;;;;;;;;;;;;12.08;56.22;100866.83;1373364;86;21467;31
2021/10/06 01:06:12;;;;;;;;;;;;;;;12.07;56.02;100870.97;1375632;88;20261;31
2021/10/06 01:08:40;;;;;;;;;;;;;;;12.05;56.16;100867.13;1377553;88;20254;31
2021/10/06 01:11:10;;;;;;;;;;;;;;;12.04;56.19;100872.59;1376012;88;20334;31
2021/10/06 01:13:38;;;;;;;;;;;;;;;12.01;56.17;100869.73;1350272;88;20291;31
2021/10/06 01:16:08;;;;;;;;;;;;;;;11.97;56.59;100869.70;1330106;89;20259;31
2021/10/06 01:18:35;;;;;;;;;;;;;;;11.94;56.37;100864.69;1356839;88;20321;31
2021/10/06 01:21:13;;;;;;;;;;;;;;;11.91;56.52;100853.87;1358300;88;20283;31
2021/10/06 01:23:42;;;;;;;;;;;;;;;11.88;56.61;100858.61;1349366;88;20347;31
2021/10/06 01:26:20;;;;;;;;;;;;;;;11.82;57.84;100855.19;1311187;91;20278;31
2021/10/06 01:31:15;;;;;;;;;;;;;;;11.71;57.81;100854.89;1375592;87;20236;31
2021/10/06 01:33:43;;;;;;;;;;;;;;;11.68;57.52;100855.16;1379009;88;20267;31
2021/10/06 01:36:10;;;;;;;;;;;;;;;11.62;57.84;100853.91;1362120;88;20231;31
2021/10/06 01:38:40;;;;;;;;;;;;;;;11.59;58.48;100859.50;1379736;87;22647;31
2021/10/06 01:41:07;;;;;;;;;;;;;;;11.55;58.17;100860.78;1335470;89;20291;31
2021/10/06 01:43:35;;;;;;;;;;;;;;;11.51;58.33;100867.36;1387054;85;20465;31
2021/10/06 01:48:35;;;;;;;;;;;;;;;11.45;58.68;100858.62;1408625;86;20395;31
2021/10/06 01:51:03;;;;;;;;;;;;;;;11.44;58.19;100866.24;1373119;87;20339;31
2021/10/06 01:53:38;;;;;;;;;;;;;;;11.40;58.00;100860.89;1377323;87;21401;31
2021/10/06 01:56:10;;;;;;;;;;;;;;;11.38;58.67;100861.52;1371803;87;20303;31
2021/10/06 02:01:07;;;;;;;;;;;;;;;11.28;59.10;100857.08;1379220;87;20306;31
2021/10/06 02:06:05;;;;;;;;;;;;;;;11.22;59.02;100855.00;1379117;87;21517;31
2021/10/06 02:08:32;;;;;;;;;;;;;;;11.19;58.97;100853.95;1381621;87;20245;31
2021/10/06 02:10:59;;;;;;;;;;;;;;;11.18;58.92;100860.21;1382119;87;20327;31
2021/10/06 02:13:29;;;;;;;;;;;;;;;11.17;58.73;100860.37;1382705;86;20260;31
2021/10/06 02:15:56;;;;;;;;;;;;;;;11.13;59.10;100863.77;1390821;86;20276;31
2021/10/06 02:18:23;;;;;;;;;;;;;;;11.07;59.08;100855.89;1361248;86;21424;31
2021/10/06 02:20:51;;;;;;;;;;;;;;;11.07;59.02;100857.70;1352494;88;23512;31
2021/10/06 02:23:18;;;;;;;;;;;;;;;11.03;58.94;100858.98;1376070;87;20309;31
2021/10/06 02:25:47;;;;;;;;;;;;;;;11.01;58.85;100863.56;1360913;89;21127;31
2021/10/06 02:28:15;;;;;;;;;;;;;;;10.98;58.81;100864.68;1374495;86;21493;31
2021/10/06 02:30:44;;;;;;;;;;;;;;;10.97;59.52;100860.86;1346530;88;20300;31
2021/10/06 02:33:14;;;;;;;;;;;;;;;10.92;59.21;100851.17;1355872;87;20248;31
2021/10/06 02:35:43;;;;;;;;;;;;;;;10.89;59.29;100852.77;1360548;86;20323;31
2021/10/06 02:38:15;;;;;;;;;;;;;;;10.88;59.19;100855.09;1358048;88;20331;31
2021/10/06 02:40:45;;;;;;;;;;;;;;;10.86;59.53;100855.70;1359734;86;20558;31
2021/10/06 02:43:14;;;;;;;;;;;;;;;10.86;59.46;100862.32;1381280;86;20531;31
2021/10/06 02:45:41;;;;;;;;;;;;;;;10.84;59.05;100854.50;1344829;90;20304;31
2021/10/06 02:48:08;;;;;;;;;;;;;;;10.83;59.20;100856.81;1364575;87;20346;31
2021/10/06 02:50:34;;;;;;;;;;;;;;;10.80;58.84;100859.25;1394076;88;20824;-89
2021/10/06 02:53:01;;;;;;;;;;;;;;;10.76;59.35;100853.89;1407123;88;20745;-89
2021/10/06 03:00:21;;;;;;;;;;;;;;;10.74;58.98;100863.77;1349933;89;20301;-87
2021/10/06 03:02:53;;;;;;;;;;;;;;;10.72;59.16;100849.83;1298718;91;20330;31
2021/10/06 03:05:22;;;;;;;;;;;;;;;10.69;59.17;100849.27;1342220;89;20367;31
2021/10/06 03:07:53;;;;;;;;;;;;;;;10.66;59.18;100849.06;1339073;89;20580;31
2021/10/06 03:12:52;;;;;;;;;;;;;;;10.62;59.04;100849.00;1320320;88;22081;31
2021/10/06 03:15:19;;;;;;;;;;;;;;;10.62;58.79;100854.30;1375842;88;21842;31
2021/10/06 03:20:17;;;;;;;;;;;;;;;10.56;59.04;100844.27;1330285;91;20272;31
2021/10/06 03:22:44;;;;;;;;;;;;;;;10.54;58.89;100848.84;1385494;86;20240;31
2021/10/06 03:25:11;;;;;;;;;;;;;;;10.52;58.81;100849.46;1369252;88;20259;31
2021/10/06 03:27:40;;;;;;;;;;;;;;;10.49;58.70;100851.89;1357983;89;20251;31
2021/10/06 03:30:09;;;;;;;;;;;;;;;10.50;58.42;100852.72;1352637;89;20354;31
2021/10/06 03:32:38;;;;;;;;;;;;;;;10.50;58.74;100852.72;1370043;88;20658;31
2021/10/06 03:35:11;;;;;;;;;;;;;;;10.48;58.33;100850.72;1348155;89;20350;31
2021/10/06 03:37:38;;;;;;;;;;;;;;;10.43;58.46;100850.28;1385853;87;20245;31
2021/10/06 03:40:07;;;;;;;;;;;;;;;10.42;58.32;100849.95;1382072;86;20273;31
2021/10/06 03:42:36;;;;;;;;;;;;;;;10.38;58.28;100852.84;1354590;87;20249;31
2021/10/06 03:45:08;;;;;;;;;;;;;;;10.35;58.04;100857.56;1378011;87;22565;31
2021/10/06 03:47:34;;;;;;;;;;;;;;;10.31;58.41;100852.21;1415482;86;20237;-89
2021/10/06 03:50:00;;;;;;;;;;;;;;;10.32;58.04;100855.20;1424436;86;20808;-88
2021/10/06 03:52:26;;;;;;;;;;;;;;;10.28;58.19;100842.73;1424154;86;21205;-89
2021/10/06 03:54:52;;;;;;;;;;;;;;;10.27;58.13;100841.53;1423873;86;20244;-89
2021/10/06 03:59:46;;;;;;;;;;;;;;;10.24;58.34;100843.95;1380323;87;20247;31
2021/10/06 04:02:13;;;;;;;;;;;;;;;10.24;57.69;100848.38;1384692;87;20239;31
2021/10/06 04:04:42;;;;;;;;;;;;;;;10.26;57.51;100852.58;1381696;87;20246;31
2021/10/06 04:07:09;;;;;;;;;;;;;;;10.27;57.59;100854.30;1379190;87;20289;31
2021/10/06 04:09:37;;;;;;;;;;;;;;;10.25;57.91;100846.11;1389142;87;21400;31
2021/10/06 04:12:05;;;;;;;;;;;;;;;10.24;57.79;100849.25;1387932;87;20253;31
2021/10/06 04:14:33;;;;;;;;;;;;;;;10.22;57.79;100851.67;1392508;86;22393;31
2021/10/06 04:17:00;;;;;;;;;;;;;;;10.23;57.99;100847.55;1388083;87;20246;31
2021/10/06 04:19:26;;;;;;;;;;;;;;;10.23;57.78;100848.05;1406231;88;20217;-90
2021/10/06 04:21:52;;;;;;;;;;;;;;;10.21;57.65;100847.33;1402188;88;20314;-87
2021/10/06 04:24:18;;;;;;;;;;;;;;;10.20;57.84;100849.64;1402416;88;20788;-88
2021/10/06 04:26:44;;;;;;;;;;;;;;;10.19;57.64;100851.45;1384396;88;20253;-89
2021/10/06 04:34:07;;;;;;;;;;;;;;;10.16;57.83;100846.44;1388808;87;20313;31
2021/10/06 04:36:34;;;;;;;;;;;;;;;10.17;57.83;100849.42;1393202;87;20356;31
2021/10/06 04:39:01;;;;;;;;;;;;;;;10.13;58.03;100838.28;1386455;89;20197;-88
2021/10/06 04:43:58;;;;;;;;;;;;;;;10.14;57.63;100841.27;1394106;86;21694;31
2021/10/06 04:46:26;;;;;;;;;;;;;;;10.13;57.88;100842.73;1391295;86;20313;31
2021/10/06 04:48:55;;;;;;;;;;;;;;;10.13;57.69;100848.03;1388980;86;22459;31
2021/10/06 04:51:24;;;;;;;;;;;;;;;10.15;57.43;100851.35;1389664;86;20343;31
2021/10/06 04:53:57;;;;;;;;;;;;;;;10.16;57.34;100856.52;1359100;86;20528;31
2021/10/06 04:58:54;;;;;;;;;;;;;;;10.22;57.61;100853.83;1386422;87;20342;31
2021/10/06 05:01:23;;;;;;;;;;;;;;;10.28;57.59;100851.99;1388168;87;20368;31
2021/10/06 05:03:52;;;;;;;;;;;;;;;10.30;57.38;100850.06;1387732;86;21504;31
2021/10/06 05:06:22;;;;;;;;;;;;;;;10.35;56.98;100861.54;1365412;87;20436;31
2021/10/06 05:08:51;;;;;;;;;;;;;;;10.39;57.08;100858.50;1387841;87;20559;31
2021/10/06 05:11:18;;;;;;;;;;;;;;;10.44;57.08;100855.91;1384555;86;20228;-87
2021/10/06 05:13:49;;;;;;;;;;;;;;;10.47;57.02;100858.29;1403867;86;20200;31
2021/10/06 05:16:21;;;;;;;;;;;;;;;10.50;56.69;100857.55;1395684;87;20276;31
2021/10/06 05:18:47;;;;;;;;;;;;;;;10.51;56.61;100859.70;1391395;87;20249;-88
2021/10/06 05:21:13;;;;;;;;;;;;;;;10.56;56.83;100857.50;1390019;89;20191;-89
2021/10/06 05:23:39;;;;;;;;;;;;;;;10.61;56.70;100853.92;1391685;89;20270;-88
2021/10/06 05:26:05;;;;;;;;;;;;;;;10.61;56.90;100851.28;1404860;86;20360;-90
2021/10/06 05:28:32;;;;;;;;;;;;;;;10.66;56.50;100857.00;1392936;87;22089;31
2021/10/06 05:31:02;;;;;;;;;;;;;;;10.70;56.62;100857.06;1384413;87;21452;31
2021/10/06 05:33:31;;;;;;;;;;;;;;;10.75;56.32;100856.17;1382548;86;21449;31
2021/10/06 05:36:03;;;;;;;;;;;;;;;10.82;56.79;100857.80;1381607;86;20369;31
2021/10/06 05:38:35;;;;;;;;;;;;;;;10.93;56.61;100864.75;1380627;86;20248;31
2021/10/06 05:41:04;;;;;;;;;;;;;;;11.01;56.30;100873.67;1382298;86;20310;31
2021/10/06 05:43:31;;;;;;;;;;;;;;;11.10;56.74;100878.62;1378329;86;20258;31
2021/10/06 05:45:57;;;;;;;;;;;;;;;11.21;55.84;100886.42;1385578;86;20240;31
2021/10/06 05:48:25;;;;;;;;;;;;;;;11.26;55.45;100880.22;1354912;87;21491;31
2021/10/06 05:50:54;;;;;;;;;;;;;;;11.34;55.23;100880.85;1362381;86;20470;31
2021/10/06 05:53:21;;;;;;;;;;;;;;;11.41;56.12;100882.44;1379245;86;20254;31
2021/10/06 05:56:00;;;;;;;;;;;;;;;11.45;55.16;100873.20;1340890;89;22029;31
2021/10/06 05:58:39;;;;;;;;;;;;;;;11.52;54.50;100873.00;1359771;88;20431;31
2021/10/06 06:01:12;;;;;;;;;;;;;;;11.59;54.91;100860.83;1374707;87;20417;31
2021/10/06 06:03:39;;;;;;;;;;;;;;;11.65;55.52;100860.28;1387375;86;20269;31
2021/10/06 06:06:12;;;;;;;;;;;;;;;11.72;54.43;100866.66;1385339;86;20253;31
2021/10/06 06:14:06;;;;;;;;;;;;;;;11.86;54.16;100869.38;1376369;87;20325;31
2021/10/06 06:16:38;;;;;;;;;;;;;;;11.92;53.94;100878.58;1385026;87;20452;31
2021/10/06 06:21:36;;;;;;;;;;;;;;;12.01;54.00;100886.98;1383948;87;20334;31
2021/10/06 06:24:08;;;;;;;;;;;;;;;12.12;54.26;100881.98;1382173;87;20268;31
2021/10/06 06:31:51;;;;;;;;;;;;;;;12.32;53.81;100880.91;1356300;88;22017;31
2021/10/06 06:37:12;;;;;;;;;;;;;;;12.54;53.39;100890.27;1378889;86;20388;31
2021/10/06 06:39:51;;;;;;;;;;;;;;;12.62;53.63;100885.05;1379518;86;20387;31
2021/10/06 06:42:19;;;;;;;;;;;;;;;12.68;51.76;100883.61;1385568;87;20332;31
2021/10/06 06:47:21;;;;;;;;;;;;;;;12.90;52.55;100888.98;1370714;87;20357;31
2021/10/06 06:49:49;;;;;;;;;;;;;;;12.99;52.92;100891.23;1372382;86;20296;31
2021/10/06 06:52:18;;;;;;;;;;;;;;;13.08;52.89;100891.14;1372670;87;21477;31
2021/10/06 06:54:47;;;;;;;;;;;;;;;13.22;51.93;100887.61;1360776;88;20338;31
2021/10/06 06:57:20;;;;;;;;;;;;;;;13.30;52.32;100882.40;1353860;87;20317;31
2021/10/06 07:02:22;;;;;;;;;;;;;;;13.61;52.09;100883.27;1380623;86;20351;31
2021/10/06 07:04:51;;;;;;;;;;;;;;;13.77;51.27;100876.73;1385396;86;20330;31
2021/10/06 07:07:18;;;;;;;;;;;;;;;13.88;50.82;100875.62;1368709;88;20748;-90
2021/10/06 07:09:48;;;;;;;;;;;;;;;14.03;49.56;100885.18;1364333;90;20257;-90
2021/10/06 07:12:18;;;;;;;;;;;;;;;14.19;49.29;100890.59;1363864;90;20243;-89
2021/10/06 07:14:45;;;;;;;;;;;;;;;14.28;48.73;100892.28;1363807;90;20235;-89
2021/10/06 07:17:11;;;;;;;;;;;;;;;14.27;48.69;100893.30;1364168;90;20272;-89
2021/10/06 07:19:37;;;;;;;;;;;;;;;14.39;49.23;100895.99;1363829;90;20851;-90
2021/10/06 07:22:04;;;;;;;;;;;;;;;14.49;48.65;100899.02;1363976;91;20250;-89
2021/10/06 07:24:30;;;;;;;;;;;;;;;14.65;47.90;100901.77;1363888;90;20250;-90
2021/10/06 07:30:24;;;;;;;;;;;;;;;14.99;47.61;100907.00;1363804;91;20249;-90
2021/10/06 07:32:50;;;;;;;;;;;;;;;15.10;46.80;100912.01;1364029;90;20357;-88
2021/10/06 07:35:16;;;;;;;;;;;;;;;15.10;46.48;100901.34;1364137;91;20227;-88
2021/10/06 07:37:44;;;;;;;;;;;;;;;15.02;45.83;100909.84;1364051;90;20748;-88
2021/10/06 07:40:11;;;;;;;;;;;;;;;14.76;46.03;100912.12;1364167;90;20317;-89
2021/10/06 07:42:37;;;;;;;;;;;;;;;14.87;46.03;100907.81;1364035;90;20280;-89
2021/10/06 07:45:04;;;;;;;;;;;;;;;14.84;46.82;100910.78;1363859;91;20718;-88
2021/10/06 07:47:30;;;;;;;;;;;;;;;14.86;47.96;100914.13;1364062;91;20257;-91
2021/10/06 07:49:56;;;;;;;;;;;;;;;14.89;47.42;100908.46;1364146;90;20804;-90
2021/10/06 07:52:22;;;;;;;;;;;;;;;14.87;46.81;100907.81;1364172;91;21079;-91
2021/10/06 07:55:05;;;;;;;;;;;;;;;14.93;46.89;100911.63;1363901;91;20756;-89
2021/10/06 07:57:32;;;;;;;;;;;;;;;14.97;46.93;100906.32;1363947;90;20273;-90
2021/10/06 07:59:59;;;;;;;;;;;;;;;14.99;47.31;100907.47;1363965;90;20763;-89
2021/10/06 08:02:26;;;;;;;;;;;;;;;14.99;47.25;100905.66;1363496;90;20278;-88
2021/10/06 08:04:52;;;;;;;;;;;;;;;15.07;45.91;100911.48;1363610;90;20837;-88
2021/10/06 08:07:18;;;;;;;;;;;;;;;15.11;46.32;100913.67;1364056;90;20326;-89
2021/10/06 08:09:44;;;;;;;;;;;;;;;15.19;47.00;100914.19;1363497;90;20392;-88
2021/10/06 08:12:11;;;;;;;;;;;;;;;15.23;46.64;100914.17;1363875;91;20858;-89
2021/10/06 08:14:38;;;;;;;;;;;;;;;15.26;45.87;100913.84;1364003;90;20243;-88
2021/10/06 08:17:04;;;;;;;;;;;;;;;15.23;45.69;100911.50;1364107;91;20361;-88
2021/10/06 08:19:30;;;;;;;;;;;;;;;15.33;46.23;100918.86;1364164;90;20264;-90
2021/10/06 08:21:56;;;;;;;;;;;;;;;15.34;44.96;100916.51;1364121;91;20355;-90
2021/10/06 08:24:22;;;;;;;;;;;;;;;15.25;46.36;100912.69;1364189;90;20264;-91
2021/10/06 08:26:48;;;;;;;;;;;;;;;15.39;44.74;100909.83;1364223;90;21287;-91
2021/10/06 08:29:14;;;;;;;;;;;;;;;15.43;45.97;100913.84;1364126;90;20302;-91
2021/10/06 08:31:40;;;;;;;;;;;;;;;15.42;44.72;100917.49;1364869;90;20249;-94
2021/10/06 08:34:17;;;;;;;;;;;;;;;15.42;46.15;100918.83;1365302;91;20257;-93
2021/10/06 08:36:43;;;;;;;;;;;;;;;15.49;46.45;100917.17;1365011;91;20250;-94
2021/10/06 08:39:09;;;;;;;;;;;;;;;15.61;45.85;100918.48;1364995;90;20362;-95
2021/10/06 08:41:36;;;;;;;;;;;;;;;15.68;45.16;100917.34;1364572;91;20227;-90
2021/10/06 08:44:02;;;;;;;;;;;;;;;15.74;45.61;100916.18;1364093;90;20368;-91
2021/10/06 08:46:28;;;;;;;;;;;;;;;15.77;44.88;100916.34;1364132;90;20288;-90
2021/10/06 08:48:55;;;;;;;;;;;;;;;15.84;44.97;100914.65;1364032;90;20266;-90
2021/10/06 08:51:22;;;;;;;;;;;;;;;15.89;44.50;100910.15;1364113;90;20355;-90
2021/10/06 08:53:49;;;;;;;;;;;;;;;15.97;44.12;100918.14;1364423;91;20250;-90
2021/10/06 08:56:16;;;;;;;;;;;;;;;16.06;44.62;100906.42;1363994;91;20294;-90
2021/10/06 08:58:42;;;;;;;;;;;;;;;16.09;46.05;100906.08;1374991;90;20242;-90
2021/10/06 09:01:10;;;;;;;;;;;;;;;16.19;44.49;100910.70;1364280;91;20809;-90
2021/10/06 09:03:36;;;;;;;;;;;;;;;16.25;45.09;100910.52;1362858;90;20339;-91
2021/10/06 09:06:10;;;;;;;;;;;;;;;16.24;45.16;100907.02;1364522;90;20235;-90
2021/10/06 09:08:37;;;;;;;;;;;;;;;16.29;45.05;100915.03;1364344;90;20835;-91
2021/10/06 09:11:05;;;;;;;;;;;;;;;16.20;44.00;100909.72;1364373;90;20249;-90
2021/10/06 09:13:36;;;;;;;;;;;;;;;16.26;44.15;100916.20;1364282;91;21161;-91
2021/10/06 09:16:02;;;;;;;;;;;;;;;16.28;44.51;100918.69;1364193;91;20350;-91
2021/10/06 09:18:30;;;;;;;;;;;;;;;16.27;44.75;100917.86;1363283;90;20259;-90
2021/10/06 09:21:02;;;;;;;;;;;;;;;16.26;44.51;100912.20;1361459;90;20355;-90
2021/10/06 09:23:31;;;;;;;;;;;;;;;16.20;43.31;100909.72;1385952;92;20965;-94
2021/10/06 09:26:05;;;;;;;;;;;;;;;16.27;45.06;100917.86;1388090;88;20240;-95
2021/10/06 09:28:36;;;;;;;;;;;;;;;16.28;43.79;100924.03;1403460;88;20275;-93
2021/10/06 09:31:09;;;;;;;;;;;;;;;16.38;43.34;100922.00;1414528;87;20247;-93
2021/10/06 09:33:43;;;;;;;;;;;;;;;16.43;44.48;100927.66;1405023;87;20261;-93
2021/10/06 09:36:25;;;;;;;;;;;;;;;16.45;44.17;100923.78;1406765;88;20759;-93
2021/10/06 09:38:57;;;;;;;;;;;;;;;16.54;44.58;100917.89;1400683;89;20261;-93
2021/10/06 09:41:32;;;;;;;;;;;;;;;16.63;45.25;100918.21;1413838;88;20229;-93
2021/10/06 09:44:03;;;;;;;;;;;;;;;16.80;44.37;100920.80;1409532;87;20259;-93
2021/10/06 09:46:55;;;;;;;;;;;;;;;16.95;44.23;100920.91;1410567;88;20337;-94
2021/10/06 09:49:28;;;;;;;;;;;;;;;17.03;43.16;100924.35;1405662;88;20254;-92
2021/10/06 09:52:18;;;;;;;;;;;;;;;17.10;43.19;100922.61;1400968;88;20247;-92
2021/10/06 09:55:04;;;;;;;;;;;;;;;17.11;44.04;100925.61;1401494;87;20255;-90
2021/10/06 09:57:34;;;;;;;;;;;;;;;17.13;42.74;100924.93;1398085;88;20349;-95
2021/10/06 10:00:02;;;;;;;;;;;;;;;17.09;42.09;100920.96;1401945;87;20291;-94
2021/10/06 10:02:29;;;;;;;;;;;;;;;17.10;42.45;100920.45;1395693;89;20261;-95
2021/10/06 10:04:56;;;;;;;;;;;;;;;17.16;43.21;100921.58;1396729;89;20236;-95
2021/10/06 10:07:22;;;;;;;;;;;;;;;17.29;42.38;100920.45;1416871;86;20340;-94
2021/10/06 10:09:49;;;;;;;;;;;;;;;17.41;42.24;100920.38;1415883;86;20244;-94
2021/10/06 10:12:18;;;;;;;;;;;;;;;17.54;41.66;100916.56;1416135;87;20258;-95
2021/10/06 10:14:44;;;;;;;;;;;;;;;17.72;42.55;100918.07;1417682;86;20259;-94
2021/10/06 10:17:10;;;;;;;;;;;;;;;17.92;41.50;100919.23;1416786;87;20319;-96
2021/10/06 10:19:37;;;;;;;;;;;;;;;18.09;40.99;100913.70;1417402;87;20303;-96
2021/10/06 10:22:04;;;;;;;;;;;;;;;18.27;40.56;100908.81;1417094;86;20334;-95
2021/10/06 10:24:30;;;;;;;;;;;;;;;18.43;40.35;100907.25;1416647;86;20334;-95
2021/10/06 10:26:59;;;;;;;;;;;;;;;18.59;41.25;100898.17;1417258;86;20743;-95
2021/10/06 10:29:39;;;;;;;;;;;;;;;18.88;39.39;100899.97;1417427;87;20222;-95
2021/10/06 10:32:08;;;;;;;;;;;;;;;19.16;40.06;100903.20;1417134;87;20237;-96
2021/10/06 10:35:07;;;;;;;;;;;;;;;19.46;39.14;100897.19;1416870;87;20244;-95
2021/10/06 10:37:54;;;;;;;;;;;;;;;19.73;38.52;100894.20;1416731;86;20244;-95
2021/10/06 10:40:40;;;;;;;;;;;;;;;19.89;38.52;100893.59;1416618;86;20259;-94
2021/10/06 10:43:21;;;;;;;;;;;;;;;19.88;38.57;100892.77;1415430;87;20229;-93
2021/10/06 10:49:54;;;;;;;;;;;;;;;19.88;36.99;100882.52;1414629;101;20245;-93
2021/10/06 10:52:46;;;;;;;;;;;;;;;19.77;38.09;100882.05;1415291;86;20838;-93
2021/10/06 10:55:14;;;;;;;;;;;;;;;19.74;37.51;100881.11;1415299;87;20236;-94
2021/10/06 10:57:58;;;;;;;;;;;;;;;19.86;38.34;100873.84;1397708;88;20251;-95
2021/10/06 11:00:32;;;;;;;;;;;;;;;19.75;38.70;100872.53;1411855;87;20765;-96
2021/10/06 11:03:02;;;;;;;;;;;;;;;19.78;37.88;100863.56;1380039;86;20274;-96
2021/10/06 11:06:21;;;;;;;;;;;;;;;19.81;38.32;100869.88;1363566;90;20258;-92
2021/10/06 11:08:47;;;;;;;;;;;;;;;19.72;37.09;100865.70;1363279;92;20259;-91
2021/10/06 11:11:26;;;;;;;;;;;;;;;19.56;37.09;100861.93;1362933;90;20221;-90
2021/10/06 11:13:52;;;;;;;;;;;;;;;19.51;39.00;100859.86;1363005;91;20273;-89
2021/10/06 11:17:14;;;;;;;;;;;;;;;19.72;37.93;100856.30;1363265;89;20757;-89
2021/10/06 11:19:51;;;;;;;;;;;;;;;19.91;36.79;100849.39;1362266;91;20361;-89
2021/10/06 11:22:27;;;;;;;;;;;;;;;20.15;36.55;100849.39;1362927;91;20354;-89
2021/10/06 11:24:57;;;;;;;;;;;;;;;20.25;37.63;100847.17;1362873;92;20259;-89
2021/10/06 11:27:47;;;;;;;;;;;;;;;20.34;37.09;100844.28;1362886;90;20350;-88
2021/10/06 11:30:14;;;;;;;;;;;;;;;20.42;36.81;100843.59;1343514;91;20772;-87
2021/10/06 11:32:50;;;;;;;;;;;;;;;20.50;36.32;100841.24;1363283;91;20303;-89
2021/10/06 11:35:16;;;;;;;;;;;;;;;20.41;36.29;100841.13;1363109;90;20228;-88
2021/10/06 11:37:42;;;;;;;;;;;;;;;20.17;35.80;100836.59;1363148;90;20258;-90
2021/10/06 11:40:17;;;;;;;;;;;;;;;20.12;36.67;100836.88;1363195;90;20810;-87
2021/10/06 11:42:43;;;;;;;;;;;;;;;19.96;37.44;100837.52;1362978;91;20259;-88
2021/10/06 11:45:23;;;;;;;;;;;;;;;19.83;36.54;100828.06;1362939;92;20333;-89
2021/10/06 11:47:48;;;;;;;;;;;;;;;19.84;37.08;100831.88;1362659;93;20757;-89
2021/10/06 11:50:15;;;;;;;;;;;;;;;19.72;37.48;100824.08;1362857;91;20793;-90
2021/10/06 11:52:41;;;;;;;;;;;;;;;19.76;38.78;100827.19;1361954;92;20243;-89
2021/10/06 11:55:07;;;;;;;;;;;;;;;19.71;37.64;100825.11;1361929;90;20377;-89
2021/10/06 11:57:33;;;;;;;;;;;;;;;19.82;38.62;100823.22;1362391;90;20326;-88
2021/10/06 11:59:59;;;;;;;;;;;;;;;19.82;38.19;100820.53;1362802;90;20817;-89
2021/10/06 12:02:26;;;;;;;;;;;;;;;19.87;38.12;100817.75;1353067;90;20259;-89
2021/10/06 12:04:55;;;;;;;;;;;;;;;19.84;37.85;100823.82;1341220;92;20341;-89
2021/10/06 12:07:25;;;;;;;;;;;;;;;19.73;36.41;100812.81;1341375;92;20252;-89
2021/10/06 12:09:53;;;;;;;;;;;;;;;19.76;37.29;100815.10;1341239;92;20259;-90
2021/10/06 12:12:36;;;;;;;;;;;;;;;19.72;37.08;100813.34;1340815;92;20395;-88
2021/10/06 12:15:10;;;;;;;;;;;;;;;19.72;37.85;100805.27;1340792;92;20347;-89
2021/10/06 12:17:44;;;;;;;;;;;;;;;19.63;37.52;100802.41;1340843;92;20371;-90
2021/10/06 12:20:12;;;;;;;;;;;;;;;19.54;37.46;100804.95;1340708;92;20348;-92
2021/10/06 12:22:47;;;;;;;;;;;;;;;19.51;37.54;100810.71;1340870;94;20401;-93
2021/10/06 12:25:21;;;;;;;;;;;;;;;19.45;37.50;100808.78;1340858;92;20810;-91
2021/10/06 12:27:50;;;;;;;;;;;;;;;19.41;38.34;100807.53;1341466;92;20244;-95
2021/10/06 12:30:22;;;;;;;;;;;;;;;19.38;40.21;100802.05;1341690;92;20251;-92
2021/10/06 12:32:50;;;;;;;;;;;;;;;19.27;38.87;100811.45;1340790;92;20813;-93
2021/10/06 12:35:20;;;;;;;;;;;;;;;19.15;39.45;100807.14;1341477;92;20281;-92
2021/10/06 12:37:57;;;;;;;;;;;;;;;19.05;38.62;100810.69;1341430;92;20244;-92
2021/10/06 12:40:52;;;;;;;;;;;;;;;18.94;38.50;100803.16;1340658;92;20452;-91
2021/10/06 12:43:22;;;;;;;;;;;;;;;18.91;39.88;100815.62;1339945;93;20289;-92
2021/10/06 12:46:11;;;;;;;;;;;;;;;18.83;40.63;100809.86;1340945;92;20295;-92
2021/10/06 12:48:55;;;;;;;;;;;;;;;18.81;40.70;100809.22;1340827;92;20221;-92
2021/10/06 12:51:28;;;;;;;;;;;;;;;18.84;39.17;100812.86;1340762;94;20259;-92
2021/10/06 12:54:15;;;;;;;;;;;;;;;18.85;39.64;100814.53;1341197;92;20258;-91
2021/10/06 12:56:42;;;;;;;;;;;;;;;18.89;41.87;100818.48;1341133;93;20341;-92
2021/10/06 12:59:11;;;;;;;;;;;;;;;18.87;40.92;100814.33;1341117;92;20751;-92
2021/10/06 13:01:39;;;;;;;;;;;;;;;18.83;42.37;100812.55;1341613;92;20244;-92
2021/10/06 13:04:09;;;;;;;;;;;;;;;18.79;42.06;100812.63;1341160;91;20296;-92
2021/10/06 13:06:35;;;;;;;;;;;;;;;18.75;40.71;100811.84;1341324;92;20348;-92
2021/10/06 13:09:04;;;;;;;;;;;;;;;18.65;41.78;100812.14;1341348;92;20236;-92
2021/10/06 13:11:30;;;;;;;;;;;;;;;18.60;41.31;100807.86;1341642;92;20251;-92
2021/10/06 13:13:55;;;;;;;;;;;;;;;18.49;42.09;100808.67;1341447;92;20327;-92
2021/10/06 13:16:21;;;;;;;;;;;;;;;18.45;43.23;100804.72;1341428;92;20750;-91
2021/10/06 13:18:47;;;;;;;;;;;;;;;18.44;43.63;100807.09;1341463;92;20250;-91
2021/10/06 13:21:13;;;;;;;;;;;;;;;18.45;43.44;100807.92;1341471;92;20304;-92
2021/10/06 13:23:40;;;;;;;;;;;;;;;18.41;43.35;100803.45;1341489;92;20244;-92
2021/10/06 13:26:08;;;;;;;;;;;;;;;18.38;42.71;100809.16;1341450;92;20244;-92
2021/10/06 13:28:35;;;;;;;;;;;;;;;18.38;42.88;100804.32;1341518;92;20251;-92
2021/10/06 13:31:03;;;;;;;;;;;;;;;18.40;43.56;100801.78;1341345;92;20336;-91
2021/10/06 13:33:29;;;;;;;;;;;;;;;18.41;43.94;100798.09;1333842;93;21102;-93
2021/10/06 13:35:54;;;;;;;;;;;;;;;18.39;43.97;100792.61;1341823;92;20244;-93
2021/10/06 13:38:20;;;;;;;;;;;;;;;18.22;42.75;100790.66;1341624;92;20351;-94
2021/10/06 13:40:47;;;;;;;;;;;;;;;18.31;43.97;100797.56;1341544;92;20846;-95
2021/10/06 13:43:13;;;;;;;;;;;;;;;18.37;43.42;100791.95;1341497;92;20244;-91
2021/10/06 13:45:40;;;;;;;;;;;;;;;18.36;41.86;100797.83;1341546;92;20251;-93
2021/10/06 13:48:06;;;;;;;;;;;;;;;18.36;42.09;100800.51;1341677;92;20319;-94
2021/10/06 13:50:33;;;;;;;;;;;;;;;18.36;43.48;100797.83;1342252;92;20251;-95
2021/10/06 13:52:59;;;;;;;;;;;;;;;18.32;44.38;100797.05;1342938;92;20267;-95
2021/10/06 13:55:25;;;;;;;;;;;;;;;18.24;45.35;100789.94;1343520;92;20720;-94
2021/10/06 13:57:53;;;;;;;;;;;;;;;18.17;45.32;100795.23;1343329;92;20296;-96
2021/10/06 14:00:20;;;;;;;;;;;;;;;18.07;45.64;100795.20;1343528;91;20786;-94
2021/10/06 14:02:46;;;;;;;;;;;;;;;17.99;45.72;100794.30;1345051;91;21046;-94
2021/10/06 14:05:12;;;;;;;;;;;;;;;17.95;46.23;100801.06;1344638;92;20252;-96